createdAt,value
2018-07-20T00:24:42.592Z,23.00
2018-07-20T00:29:38.672Z,20.70
2018-07-20T00:32:06.941Z,20.70
2018-07-20T00:34:35.136Z,20.70
2018-07-20T00:37:03.328Z,20.70
2018-07-20T00:39:31.497Z,20.70
2018-07-20T00:41:59.677Z,20.60
2018-07-20T00:46:55.805Z,20.60
2018-07-20T00:49:24.044Z,20.50
2018-07-20T00:51:52.201Z,20.50
2018-07-20T00:54:20.361Z,20.60
2018-07-20T01:56:00.460Z,20.50
2018-07-20T01:58:29.122Z,19.60
2018-07-20T02:00:57.295Z,19.60
2018-07-20T02:03:25.433Z,19.60
2018-07-20T02:05:53.633Z,19.50
2018-07-20T02:08:21.786Z,19.60
2018-07-20T02:10:55.791Z,19.50
2018-07-20T02:13:23.970Z,19.40
2018-07-20T02:15:52.210Z,19.30
2018-07-20T02:18:20.419Z,19.20
2018-07-20T02:20:48.583Z,19.00
2018-07-20T02:23:16.734Z,19.10
2018-07-20T02:25:45.006Z,19.10
2018-07-20T02:28:13.167Z,19.10
2018-07-20T02:30:41.347Z,19.10
2018-07-20T02:33:09.791Z,19.10
2018-07-20T02:35:37.978Z,19.10
2018-07-20T02:40:34.107Z,19.10
2018-07-20T02:43:02.352Z,19.10
2018-07-20T02:45:30.907Z,19.00
2018-07-20T02:47:59.191Z,19.00
2018-07-20T02:50:27.402Z,18.90
2018-07-20T02:52:55.615Z,18.90
2018-07-20T02:55:23.860Z,18.90
2018-07-20T02:57:52.015Z,18.80
2018-07-20T03:00:20.234Z,18.80
2018-07-20T03:02:48.423Z,18.70
2018-07-20T03:05:16.631Z,18.70
2018-07-20T04:02:00.416Z,18.70
2018-07-20T04:04:28.580Z,18.10
2018-07-20T04:06:56.816Z,18.00
2018-07-20T04:09:25.020Z,17.90
2018-07-20T04:11:53.199Z,17.90
2018-07-20T04:14:21.372Z,18.00
2018-07-20T04:16:49.549Z,18.00
2018-07-20T04:19:17.692Z,18.00
2018-07-20T04:21:45.868Z,18.00
2018-07-20T04:24:14.063Z,17.90
2018-07-20T04:26:42.330Z,17.90
2018-07-20T04:29:10.538Z,17.80
2018-07-20T04:31:38.756Z,17.70
2018-07-20T04:34:06.969Z,17.70
2018-07-20T04:36:35.321Z,17.60
2018-07-20T04:39:04.137Z,17.60
2018-07-20T04:41:32.388Z,17.60
2018-07-20T04:44:00.578Z,17.70
2018-07-20T04:46:28.813Z,17.70
2018-07-20T04:48:57.045Z,17.70
2018-07-20T04:51:25.798Z,17.80
2018-07-20T04:53:54.405Z,17.80
2018-07-20T04:56:22.569Z,17.80
2018-07-20T04:58:50.789Z,17.90
2018-07-20T05:01:18.981Z,17.90
2018-07-20T05:03:47.835Z,18.00
2018-07-20T05:06:16.809Z,18.00
2018-07-20T05:08:46.785Z,18.00
2018-07-20T05:11:15.146Z,18.00
2018-07-20T05:13:43.573Z,18.00
2018-07-20T05:16:11.753Z,18.10
2018-07-20T05:18:39.941Z,18.10
2018-07-20T05:21:08.200Z,18.10
2018-07-20T05:23:36.877Z,18.20
2018-07-20T05:26:05.060Z,18.20
2018-07-20T05:28:33.232Z,18.30
2018-07-20T05:31:01.468Z,18.20
2018-07-20T05:33:30.196Z,18.30
2018-07-20T05:35:58.368Z,18.30
2018-07-20T05:38:26.644Z,18.30
2018-07-20T05:40:54.877Z,18.40
2018-07-20T05:43:23.052Z,18.40
2018-07-20T05:45:51.433Z,18.50
2018-07-20T05:48:19.589Z,18.60
2018-07-20T05:50:47.744Z,18.80
2018-07-20T05:55:44.004Z,19.00
2018-07-20T05:58:12.237Z,19.20
2018-07-20T06:00:40.412Z,19.40
2018-07-20T06:03:08.609Z,19.50
2018-07-20T06:05:36.821Z,19.60
2018-07-20T06:08:05.927Z,19.80
2018-07-20T06:10:34.120Z,20.00
2018-07-20T06:13:02.556Z,20.20
2018-07-20T06:17:58.684Z,20.40
2018-07-20T06:20:26.884Z,20.50
2018-07-20T06:22:55.083Z,20.40
2018-07-20T06:25:23.269Z,20.40
2018-07-20T06:27:51.465Z,20.50
2018-07-20T06:30:19.616Z,20.50
2018-07-20T06:32:48.021Z,20.60
2018-07-20T06:35:16.220Z,20.70
2018-07-20T06:37:44.412Z,20.80
2018-07-20T06:40:12.556Z,20.90
2018-07-20T06:42:40.748Z,20.70
2018-07-20T06:45:09.025Z,20.80
2018-07-20T06:47:37.172Z,21.00
2018-07-20T06:50:09.601Z,21.10
2018-07-20T06:52:37.771Z,21.10
2018-07-20T06:55:05.936Z,21.20
2018-07-20T06:57:34.109Z,21.30
2018-07-20T07:00:02.281Z,21.30
2018-07-20T07:02:30.452Z,21.20
2018-07-20T07:04:58.729Z,21.40
2018-07-20T07:07:26.937Z,21.50
2018-07-20T07:09:55.085Z,21.60
2018-07-20T07:12:23.316Z,21.70
2018-07-20T07:14:51.642Z,21.80
2018-07-20T07:17:19.778Z,22.00
2018-07-20T07:19:47.991Z,22.20
2018-07-20T07:22:16.216Z,22.20
2018-07-20T07:24:44.347Z,22.20
2018-07-20T07:27:12.594Z,22.40
2018-07-20T07:32:15.499Z,22.80
2018-07-20T07:34:43.693Z,23.10
2018-07-20T07:37:11.886Z,23.20
2018-07-20T07:42:09.093Z,23.50
2018-07-20T07:44:37.278Z,23.70
2018-07-20T07:47:05.563Z,23.90
2018-07-20T07:49:33.735Z,24.00
2018-07-20T07:52:01.894Z,24.20
2018-07-20T07:54:30.138Z,24.40
2018-07-20T07:56:58.373Z,24.50
2018-07-20T07:59:26.542Z,24.50
2018-07-20T08:01:54.706Z,24.60
2018-07-20T08:04:22.878Z,24.70
2018-07-20T08:06:51.053Z,24.90
2018-07-20T08:09:19.518Z,25.10
2018-07-20T08:11:47.695Z,25.20
2018-07-20T08:14:15.861Z,25.30
2018-07-20T08:16:44.030Z,25.60
2018-07-20T08:19:12.197Z,25.70
2018-07-20T08:21:40.842Z,26.00
2018-07-20T08:24:09.050Z,25.80
2018-07-20T08:26:37.242Z,25.50
2018-07-20T08:29:05.426Z,25.50
2018-07-20T08:31:33.632Z,25.60
2018-07-20T08:34:01.794Z,25.60
2018-07-20T08:36:30.106Z,25.70
2018-07-20T08:38:58.331Z,25.90
2018-07-20T08:41:26.490Z,26.00
2018-07-20T08:43:54.662Z,25.80
2018-07-20T08:46:22.886Z,25.80
2018-07-20T08:48:51.074Z,25.90
2018-07-20T08:51:19.260Z,26.00
2018-07-20T08:53:47.443Z,25.80
2018-07-20T08:56:15.617Z,25.50
2018-07-20T08:58:43.828Z,25.60
2018-07-20T09:01:12.003Z,25.70
2018-07-20T09:03:40.282Z,25.90
2018-07-20T09:06:08.355Z,26.10
2018-07-20T09:08:36.584Z,26.30
2018-07-20T09:11:04.789Z,26.70
2018-07-20T09:13:33.213Z,27.00
2018-07-20T09:16:01.342Z,27.00
2018-07-20T09:18:29.507Z,27.40
2018-07-20T09:20:57.792Z,27.70
2018-07-20T09:23:25.935Z,28.00
2018-07-20T09:25:54.087Z,28.20
2018-07-20T09:28:22.282Z,28.10
2018-07-20T09:30:50.492Z,28.30
2018-07-20T09:33:18.676Z,28.40
2018-07-20T09:35:46.876Z,28.60
2018-07-20T09:38:15.116Z,28.70
2018-07-20T09:40:43.275Z,28.60
2018-07-20T09:45:39.444Z,28.90
2018-07-20T09:48:07.640Z,29.10
2018-07-20T09:50:35.796Z,29.10
2018-07-20T09:53:03.999Z,29.10
2018-07-20T09:55:32.188Z,29.20
2018-07-20T09:58:00.383Z,29.50
2018-07-20T10:01:04.568Z,29.80
2018-07-20T10:03:32.764Z,30.10
2018-07-20T10:06:00.939Z,30.00
2018-07-20T10:08:29.136Z,29.80
2018-07-20T10:10:57.357Z,30.00
2018-07-20T10:13:25.576Z,29.90
2018-07-20T10:15:53.745Z,29.70
2018-07-20T10:18:21.924Z,29.50
2018-07-20T10:20:50.113Z,29.40
2018-07-20T10:23:18.312Z,29.40
2018-07-20T10:25:46.515Z,29.60
2018-07-20T10:28:14.644Z,29.90
2018-07-20T10:30:42.865Z,30.30
2018-07-20T10:33:11.060Z,30.50
2018-07-20T10:35:39.316Z,30.60
2018-07-20T10:38:07.480Z,30.90
2018-07-20T10:40:35.644Z,31.10
2018-07-20T10:43:03.827Z,31.40
2018-07-20T10:45:32.000Z,31.20
2018-07-20T10:48:00.192Z,30.80
2018-07-20T10:50:28.356Z,30.70
2018-07-20T10:52:56.532Z,30.70
2018-07-20T10:55:24.717Z,30.80
2018-07-20T10:57:52.933Z,30.90
2018-07-20T11:00:21.121Z,31.00
2018-07-20T11:02:49.279Z,31.00
2018-07-20T11:05:17.468Z,31.00
2018-07-20T11:07:45.611Z,31.20
2018-07-20T11:10:13.785Z,31.40
2018-07-20T11:12:42.019Z,31.60
2018-07-20T11:15:10.186Z,31.60
2018-07-20T11:17:38.373Z,31.80
2018-07-20T11:20:06.594Z,31.80
2018-07-20T11:22:34.785Z,31.50
2018-07-20T11:25:02.934Z,31.60
2018-07-20T11:27:31.121Z,31.60
2018-07-20T11:32:27.310Z,31.40
2018-07-20T11:34:55.484Z,31.40
2018-07-20T11:37:23.653Z,31.50
2018-07-20T11:39:51.825Z,31.50
2018-07-20T11:42:19.985Z,31.40
2018-07-20T11:44:48.163Z,31.50
2018-07-20T11:47:16.322Z,31.80
2018-07-20T11:49:44.493Z,32.00
2018-07-20T11:52:12.758Z,32.20
2018-07-20T11:57:09.157Z,32.70
2018-07-20T11:59:37.531Z,32.80
2018-07-20T12:02:05.872Z,32.80
2018-07-20T12:04:34.038Z,32.90
2018-07-20T12:07:02.390Z,33.00
2018-07-20T12:09:30.585Z,33.10
2018-07-20T12:11:58.778Z,33.30
2018-07-20T12:14:26.974Z,33.30
2018-07-20T12:16:55.214Z,33.20
2018-07-20T12:19:23.390Z,33.00
2018-07-20T12:21:51.554Z,33.10
2018-07-20T12:24:19.723Z,33.00
2018-07-20T12:26:47.935Z,32.90
2018-07-20T12:29:16.190Z,32.70
2018-07-20T12:31:44.402Z,32.90
2018-07-20T12:34:12.570Z,32.70
2018-07-20T12:36:40.733Z,32.70
2018-07-20T12:39:10.042Z,32.90
2018-07-20T12:41:38.222Z,32.90
2018-07-20T12:44:06.494Z,32.70
2018-07-20T12:46:34.719Z,32.10
2018-07-20T12:49:02.871Z,31.90
2018-07-20T12:51:31.066Z,32.10
2018-07-20T12:56:27.567Z,32.00
2018-07-20T12:58:55.800Z,31.90
2018-07-20T13:01:23.939Z,32.40
2018-07-20T13:03:52.102Z,32.70
2018-07-20T13:06:20.338Z,33.10
2018-07-20T13:08:48.522Z,33.00
2018-07-20T13:11:17.251Z,33.20
2018-07-20T13:13:45.415Z,33.00
2018-07-20T13:16:13.567Z,33.10
2018-07-20T13:18:41.771Z,32.90
2018-07-20T13:21:09.992Z,32.80
2018-07-20T13:23:38.206Z,32.80
2018-07-20T13:26:06.391Z,33.00
2018-07-20T13:28:34.584Z,33.40
2018-07-20T13:33:30.720Z,33.20
2018-07-20T13:35:58.980Z,33.40
2018-07-20T13:38:27.151Z,33.40
2018-07-20T13:40:55.323Z,33.50
2018-07-20T13:43:23.571Z,33.40
2018-07-20T13:45:51.891Z,33.20
2018-07-20T13:48:20.051Z,33.50
2018-07-20T13:50:48.235Z,33.40
2018-07-20T13:53:16.412Z,33.30
2018-07-20T13:55:44.592Z,33.30
2018-07-20T13:58:12.788Z,33.10
2018-07-20T14:00:40.968Z,33.10
2018-07-20T14:03:09.123Z,33.00
2018-07-20T14:05:37.327Z,33.10
2018-07-20T14:08:05.519Z,33.10
2018-07-20T14:10:33.704Z,32.80
2018-07-20T14:13:01.957Z,32.80
2018-07-20T14:15:30.230Z,32.80
2018-07-20T14:17:58.442Z,33.10
2018-07-20T14:20:26.603Z,33.00
2018-07-20T14:22:54.765Z,32.90
2018-07-20T14:25:22.932Z,32.70
2018-07-20T14:27:51.128Z,32.60
2018-07-20T14:30:19.405Z,32.70
2018-07-20T14:32:47.616Z,32.80
2018-07-20T14:35:15.829Z,32.80
2018-07-20T14:37:44.020Z,33.10
2018-07-20T14:40:12.269Z,33.30
2018-07-20T14:42:40.517Z,33.50
2018-07-20T14:45:09.188Z,33.50
2018-07-20T14:47:37.576Z,33.30
2018-07-20T14:50:06.084Z,33.50
2018-07-20T14:52:34.257Z,33.60
2018-07-20T14:55:02.433Z,33.40
2018-07-20T14:57:30.729Z,32.90
2018-07-20T14:59:58.931Z,32.70
2018-07-20T15:02:27.131Z,32.30
2018-07-20T15:04:55.410Z,32.00
2018-07-20T15:07:23.757Z,31.90
2018-07-20T15:09:51.954Z,32.10
2018-07-20T15:12:20.192Z,32.30
2018-07-20T15:14:48.343Z,32.30
2018-07-20T15:17:16.482Z,32.40
2018-07-20T15:19:44.653Z,32.40
2018-07-20T15:22:12.852Z,32.50
2018-07-20T15:24:41.405Z,32.50
2018-07-20T15:27:09.577Z,32.20
2018-07-20T15:29:37.781Z,31.90
2018-07-20T15:32:06.059Z,31.40
2018-07-20T15:34:34.225Z,31.20
2018-07-20T15:39:30.455Z,30.90
2018-07-20T15:41:58.638Z,30.90
2018-07-20T15:44:26.821Z,31.30
2018-07-20T15:46:55.182Z,31.60
2018-07-20T15:49:23.141Z,31.60
2018-07-20T15:53:35.718Z,31.50
2018-07-20T15:54:19.503Z,31.20
2018-07-20T15:56:47.817Z,31.20
2018-07-20T15:59:16.000Z,31.50
2018-07-20T16:01:44.141Z,31.80
2018-07-20T16:04:12.314Z,31.90
2018-07-20T16:06:40.501Z,31.80
2018-07-20T16:09:10.801Z,32.00
2018-07-20T16:11:39.036Z,31.90
2018-07-20T16:14:07.161Z,31.90
2018-07-20T16:16:35.405Z,32.00
2018-07-20T16:19:03.658Z,32.10
2018-07-20T16:21:31.850Z,31.90
2018-07-20T16:24:00.011Z,31.90
2018-07-20T16:26:28.178Z,32.10
2018-07-20T16:28:56.354Z,32.10
2018-07-20T16:31:24.510Z,32.20
2018-07-20T16:33:52.734Z,32.10
2018-07-20T16:36:20.890Z,31.90
2018-07-20T16:38:49.123Z,31.80
2018-07-20T16:41:17.390Z,31.50
2018-07-20T16:43:45.763Z,31.60
2018-07-20T16:46:14.246Z,31.60
2018-07-20T16:48:42.454Z,31.60
2018-07-20T16:51:10.651Z,31.50
2018-07-20T16:53:38.894Z,31.60
2018-07-20T16:56:07.116Z,31.60
2018-07-20T16:58:35.299Z,31.00
2018-07-20T17:01:03.598Z,31.10
2018-07-20T17:03:31.800Z,31.10
2018-07-20T17:05:59.987Z,31.20
2018-07-20T17:08:28.183Z,31.20
2018-07-20T17:13:24.275Z,31.20
2018-07-20T17:15:52.419Z,31.10
2018-07-20T17:18:21.019Z,31.10
2018-07-20T17:20:49.204Z,30.90
2018-07-20T17:23:17.473Z,30.90
2018-07-20T17:25:45.668Z,30.70
2018-07-20T17:28:13.873Z,30.60
2018-07-20T17:30:41.989Z,30.60
2018-07-20T17:33:10.244Z,30.60
2018-07-20T17:35:38.400Z,30.70
2018-07-20T17:38:06.577Z,30.70
2018-07-20T17:40:34.744Z,30.60
2018-07-20T17:43:03.004Z,30.60
2018-07-20T17:45:31.180Z,30.50
2018-07-20T17:47:59.375Z,30.40
2018-07-20T17:50:27.554Z,30.40
2018-07-20T17:52:55.729Z,30.40
2018-07-20T17:55:23.991Z,30.40
2018-07-20T17:57:52.140Z,30.50
2018-07-20T18:00:20.367Z,30.60
2018-07-20T18:02:48.544Z,30.60
2018-07-20T18:05:16.745Z,30.40
2018-07-20T18:07:44.972Z,30.40
2018-07-20T18:10:13.169Z,30.50
2018-07-20T18:12:41.320Z,30.50
2018-07-20T18:15:09.660Z,30.60
2018-07-20T18:17:37.896Z,30.40
2018-07-20T18:20:06.104Z,30.40
2018-07-20T18:22:34.285Z,30.20
2018-07-20T18:25:02.481Z,30.00
2018-07-20T18:27:30.677Z,29.80
2018-07-20T18:29:58.860Z,29.60
2018-07-20T18:32:27.024Z,29.40
2018-07-20T18:34:55.181Z,29.20
2018-07-20T18:37:23.333Z,29.20
2018-07-20T18:39:51.521Z,29.20
2018-07-20T18:42:19.692Z,29.00
2018-07-20T18:44:47.896Z,28.90
2018-07-20T18:47:16.077Z,28.70
2018-07-20T18:49:44.248Z,28.70
2018-07-20T18:52:12.409Z,28.70
2018-07-20T18:54:41.436Z,28.60
2018-07-20T18:57:09.616Z,28.50
2018-07-20T18:59:37.813Z,28.20
2018-07-20T19:02:06.066Z,28.20
2018-07-20T19:04:34.273Z,28.20
2018-07-20T19:07:02.537Z,28.10
2018-07-20T19:09:30.720Z,28.10
2018-07-20T19:11:58.880Z,28.10
2018-07-20T19:14:27.068Z,27.90
2018-07-20T19:16:55.228Z,27.80
2018-07-20T19:19:23.396Z,27.80
2018-07-20T19:21:51.573Z,27.70
2018-07-20T19:24:19.806Z,27.70
2018-07-20T19:26:47.997Z,27.60
2018-07-20T19:29:16.169Z,27.60
2018-07-20T19:31:44.345Z,27.50
2018-07-20T19:34:12.539Z,27.40
2018-07-20T19:36:40.682Z,27.40
2018-07-20T19:39:10.377Z,27.40
2018-07-20T19:41:38.741Z,27.30
2018-07-20T19:44:06.891Z,27.20
2018-07-20T19:46:35.139Z,27.20
2018-07-20T19:49:03.503Z,27.00
